Aérodrome :
LOGIN :

S'inscrire | Disclaimer

   EN    FR    IT 

 










Légende :    VFR   VFR Marginal   IFR   IFR Intensif   IFR Très Intensif
Visi : 
Plafond : 
>= 8 km
>= 3000ft
5 à 8 km
1000 à 3000 ft
1500m à 5 km
500 à 1000 ft
800 à 1500m
200 à 500 ft
< 800m
< 200 ft
Symboles :   Orages  Brouillard  Fortes neiges  Fortes précipitations  Vent > 20 kt
SIGMETs :   Divers  Orages  Givrage  Turbulence  Onde Orograph.  Cendres Volcan.







- Altitude de l'aérodrome : 16 ft
- Code IATA : EAS


LESO - San Sebastian Fuenterrabia

DERNIER METAR :
  • 221600Z 36006KT 320V040 CAVOK 18/14 Q0997

METARs EXPIRÉS :
  • 221530Z 36005KT 310V060 9999 FEW040 17/13 Q0997
  • 221500Z 36005KT 300V050 9999 FEW040 17/13 Q0998
  • 221430Z 01006KT 330V040 9999 FEW040 16/12 Q0998
  • 221400Z 01006KT 320V050 9999 FEW040 16/12 Q0999
  • 221330Z 02006KT 340V050 9999 FEW040 17/12 Q0999

TAF TAF LESO
Valide du 22 à 12h jusqu'au 23 à 12h UTC


221100Z 2212/2312 02009KT 9999 FEW015 TX18/2215Z TN15/2306Z
BECMG 2218/2222 18010KT
BECMG 2308/2312 30010KT
Pas de NOTAMs connus pour ce terrain.



MET'MAP, la Météo Aéronautique d'un coup d'oeil ! - Copyright ORBIFLY Décembre 2007 - Disclaimer

ORBIFLY MET'MAP TEAM :

Programmation & Développement : Alexandra Zaïnal
Conception & Développement : Baudouin d'Aumeries
Co-Programmation & Développement : Marc-Olivier Méhu
Soutien technique & logistique : Manuel Goepfert

Contact : metmap@orbifly.com




SOURCES & CREDITS :

   NOAA